Time;durP1;ratioP1;P1;durP2;ratioP2;P2;SDS_P1;SDS_P2;PMS_P1;PMS_P2;Temp;Humidity;BMP_temperature;BMP_pressure;BME280_temperature;BME280_humidity;BME280_pressure;Samples;Min_cycle;Max_cycle;Signal;HPM_P1;HPM_P2
2022/05/07 00:02:07;;;;;;;27.05;17.20;;;;;;;23.43;69.40;102181.28;5082771;28;20044;-53
2022/05/07 00:04:37;;;;;;;28.60;16.87;;;;;;;23.34;69.79;102183.59;5081975;28;20066;-54
2022/05/07 00:07:05;;;;;;;26.30;16.57;;;;;;;23.18;67.82;102179.78;5090410;28;20270;-55
2022/05/07 00:09:31;;;;;;;27.50;16.73;;;;;;;23.34;67.58;102172.69;5061263;28;20269;-49
2022/05/07 00:11:58;;;;;;;30.45;16.45;;;;;;;23.23;66.85;102175.47;5087054;28;20389;-53
2022/05/07 00:14:24;;;;;;;32.43;16.17;;;;;;;23.27;67.32;102169.28;5084921;28;20051;-54
2022/05/07 00:19:34;;;;;;;25.33;16.37;;;;;;;23.26;68.40;102169.53;5061978;28;20025;-54
2022/05/07 00:22:01;;;;;;;29.55;16.50;;;;;;;23.29;68.19;102175.31;5086260;28;20269;-52
2022/05/07 00:24:26;;;;;;;26.42;15.57;;;;;;;23.23;68.81;102159.09;5085214;28;20041;-52
2022/05/07 00:26:52;;;;;;;28.60;16.15;;;;;;;23.23;68.41;102168.09;5079272;28;20063;-52
2022/05/07 00:29:18;;;;;;;26.42;15.40;;;;;;;23.08;69.68;102162.41;5075635;28;20040;-53
2022/05/07 00:31:44;;;;;;;29.83;16.90;;;;;;;23.09;70.43;102164.88;5089804;28;20097;-50
2022/05/07 00:34:10;;;;;;;23.83;16.17;;;;;;;24.10;68.94;102164.97;5085939;28;20036;-55
2022/05/07 00:36:35;;;;;;;24.65;16.67;;;;;;;23.16;76.04;102159.25;5085352;28;20047;-53
2022/05/07 00:39:01;;;;;;;24.87;16.67;;;;;;;23.13;81.60;102155.09;5093457;28;20036;-48
2022/05/07 00:41:26;;;;;;;29.50;19.47;;;;;;;23.05;86.83;102152.81;5079761;28;20288;-52
2022/05/07 00:43:52;;;;;;;32.50;19.53;;;;;;;22.87;90.53;102151.97;5090220;28;20270;-53
2022/05/07 00:46:22;;;;;;;29.47;19.07;;;;;;;22.81;92.50;102152.13;5087073;28;20059;-55
2022/05/07 00:48:48;;;;;;;32.87;19.63;;;;;;;22.84;91.21;102154.38;5082457;28;20290;-53
2022/05/07 00:53:57;;;;;;;34.37;20.77;;;;;;;22.78;93.30;102159.72;5083256;28;20098;-49
2022/05/07 00:56:23;;;;;;;33.40;20.83;;;;;;;22.73;93.32;102156.09;5069143;28;20270;-52
2022/05/07 00:58:51;;;;;;;37.17;20.63;;;;;;;22.66;94.17;102155.41;5090465;28;20033;-52
2022/05/07 01:01:17;;;;;;;30.73;20.73;;;;;;;22.72;92.81;102144.34;5078223;28;20055;-55
2022/05/07 01:03:45;;;;;;;35.17;19.63;;;;;;;22.62;95.34;102145.00;5081881;28;20270;-53
2022/05/07 01:06:12;;;;;;;34.00;19.77;;;;;;;22.76;94.21;102142.78;5087102;28;20266;-54
2022/05/07 01:08:38;;;;;;;27.92;18.67;;;;;;;22.65;95.00;102143.69;5076096;28;20280;-53
2022/05/07 01:11:03;;;;;;;26.83;18.23;;;;;;;23.01;88.50;102133.38;5092170;28;20045;-54
2022/05/07 01:13:30;;;;;;;33.07;19.80;;;;;;;22.71;92.59;102142.69;5080151;28;20046;-51
2022/05/07 01:15:58;;;;;;;35.67;20.27;;;;;;;22.46;95.46;102143.91;5088893;28;20297;-55
2022/05/07 01:18:27;;;;;;;38.67;20.37;;;;;;;22.34;96.83;102140.34;5076025;28;20258;-55
2022/05/07 01:20:55;;;;;;;29.38;19.35;;;;;;;22.30;98.78;102141.91;5090589;28;20270;-55
2022/05/07 01:23:22;;;;;;;27.50;18.37;;;;;;;22.33;98.97;102141.44;5079080;28;20032;-53
2022/05/07 01:25:48;;;;;;;36.58;17.95;;;;;;;22.41;93.45;102141.06;5090316;28;20270;-52
2022/05/07 01:28:14;;;;;;;32.85;18.88;;;;;;;22.43;93.29;102135.34;5084790;28;20059;-52
2022/05/07 01:30:40;;;;;;;31.38;18.38;;;;;;;22.47;92.50;102131.09;5083721;28;20033;-52
2022/05/07 01:33:05;;;;;;;29.55;18.67;;;;;;;22.44;92.46;102129.66;5091410;28;20040;-51
2022/05/07 01:35:33;;;;;;;30.17;18.60;;;;;;;22.40;93.98;102128.50;5078986;28;20095;-53
2022/05/07 01:37:58;;;;;;;35.40;18.93;;;;;;;22.44;94.15;102126.94;5089533;28;20273;-54
2022/05/07 01:40:28;;;;;;;25.30;17.77;;;;;;;22.44;93.36;102121.47;5086566;28;20042;-53
2022/05/07 01:42:53;;;;;;;37.13;19.23;;;;;;;22.32;95.22;102129.72;5080052;28;20298;-53
2022/05/07 01:45:19;;;;;;;27.20;18.58;;;;;;;22.34;94.19;102126.72;5091885;28;20036;-55
2022/05/07 01:50:36;;;;;;;30.90;18.87;;;;;;;22.40;92.98;102123.06;5083197;28;20116;-51
2022/05/07 01:53:03;;;;;;;28.53;17.87;;;;;;;22.39;93.11;102118.69;5091689;28;20285;-53
2022/05/07 01:55:28;;;;;;;27.15;18.15;;;;;;;22.41;93.51;102121.97;5078425;28;20341;-53
2022/05/07 01:57:54;;;;;;;32.30;19.80;;;;;;;22.41;94.54;102115.69;5088844;28;20040;-54
2022/05/07 02:00:21;;;;;;;28.90;19.10;;;;;;;22.40;94.40;102119.47;5085083;28;20108;-52
2022/05/07 02:02:48;;;;;;;35.73;21.87;;;;;;;22.45;93.13;102109.50;5081262;28;20288;-51
2022/05/07 02:05:19;;;;;;;33.43;20.90;;;;;;;22.47;92.25;102104.66;5091388;28;20299;-52
2022/05/07 02:07:44;;;;;;;34.58;20.55;;;;;;;22.39;96.15;102113.22;5069664;28;20864;-51
2022/05/07 02:10:12;;;;;;;38.27;20.97;;;;;;;22.24;100.00;102107.47;5072178;28;20032;-54
2022/05/07 02:12:38;;;;;;;33.78;21.92;;;;;;;22.42;99.19;102103.72;5082601;28;20300;-51
2022/05/07 02:15:06;;;;;;;38.13;26.10;;;;;;;22.44;96.42;102105.13;5090933;28;20112;-51
2022/05/07 02:17:33;;;;;;;35.67;24.43;;;;;;;22.38;94.26;102100.66;5078745;28;20344;-51
2022/05/07 02:19:59;;;;;;;40.42;25.00;;;;;;;22.32;94.20;102101.63;5087963;28;20277;-51
2022/05/07 02:22:24;;;;;;;41.17;24.67;;;;;;;22.19;92.77;102108.19;5085775;28;20111;-52
2022/05/07 02:24:50;;;;;;;34.15;24.63;;;;;;;22.24;91.78;102102.03;5080446;28;20041;-53
2022/05/07 02:27:21;;;;;;;45.53;23.37;;;;;;;22.19;89.79;102102.75;5090870;28;20104;-51
2022/05/07 02:29:47;;;;;;;36.00;23.60;;;;;;;22.12;88.10;102100.16;5074510;28;20289;-49
2022/05/07 02:32:13;;;;;;;35.27;22.13;;;;;;;22.09;89.06;102108.00;5079465;28;20044;-53
2022/05/07 02:34:42;;;;;;;36.17;24.30;;;;;;;22.10;88.71;102102.31;5086674;28;20048;-53
2022/05/07 02:37:16;;;;;;;39.17;23.70;;;;;;;22.14;88.26;102103.47;5062169;28;20284;-51
2022/05/07 02:39:46;;;;;;;35.63;23.53;;;;;;;22.16;88.46;102103.25;5089365;28;20270;-54
2022/05/07 02:45:01;;;;;;;36.70;23.15;;;;;;;22.18;87.87;102107.38;5078991;28;20278;-53
2022/05/07 02:47:28;;;;;;;35.73;23.70;;;;;;;22.09;88.92;102102.56;5090670;28;20047;-52
2022/05/07 02:49:54;;;;;;;36.53;23.27;;;;;;;21.96;89.25;102104.50;5073994;28;20282;-52
2022/05/07 02:52:19;;;;;;;39.60;24.45;;;;;;;22.03;88.11;102107.09;5083496;28;20281;-50
2022/05/07 02:54:45;;;;;;;35.08;22.63;;;;;;;22.20;87.67;102107.97;5094137;28;20131;-54
2022/05/07 02:57:11;;;;;;;39.10;24.37;;;;;;;22.25;86.73;102100.97;5078146;28;20033;-52
2022/05/07 02:59:40;;;;;;;37.70;23.20;;;;;;;22.24;86.05;102102.03;5090232;28;20068;-55
2022/05/07 03:02:07;;;;;;;37.55;23.67;;;;;;;22.28;85.89;102101.31;5081780;28;20652;-54
2022/05/07 03:04:33;;;;;;;36.17;23.43;;;;;;;22.17;87.40;102103.00;5082727;28;20044;-53
2022/05/07 03:06:58;;;;;;;38.00;24.13;;;;;;;22.15;89.02;102102.44;5088733;28;20277;-52
2022/05/07 03:09:24;;;;;;;40.30;24.10;;;;;;;22.17;89.47;102097.56;5075276;28;20029;-55
2022/05/07 03:11:50;;;;;;;32.87;23.60;;;;;;;22.22;89.35;102106.91;5080098;28;20514;-54
2022/05/07 03:14:21;;;;;;;37.27;24.17;;;;;;;22.17;90.98;102099.44;5084436;28;20033;-55
2022/05/07 03:16:48;;;;;;;36.23;22.07;;;;;;;22.19;91.51;102098.16;5086968;28;20279;-53
2022/05/07 03:19:15;;;;;;;37.83;24.70;;;;;;;22.20;92.62;102099.78;5076788;28;20040;-54
2022/05/07 03:21:42;;;;;;;35.77;24.87;;;;;;;22.09;96.44;102092.47;5090558;28;20735;-55
2022/05/07 03:24:08;;;;;;;40.23;26.10;;;;;;;22.00;100.00;102099.41;5065855;28;20335;-53
2022/05/07 03:26:34;;;;;;;43.80;28.23;;;;;;;22.05;98.57;102094.03;5076683;28;20297;-54
2022/05/07 03:29:00;;;;;;;44.45;31.23;;;;;;;22.03;98.13;102093.47;5079205;28;20048;-54
2022/05/07 03:31:27;;;;;;;;;;;;;;;22.11;96.87;102089.53;5090529;28;20036;-55
2022/05/07 03:33:53;;;;;;;71.80;47.10;;;;;;;22.10;96.37;102094.13;5078797;28;19970;-55
2022/05/07 03:36:24;;;;;;;61.27;39.70;;;;;;;22.03;94.50;102094.31;5083344;28;20285;-53
2022/05/07 03:38:52;;;;;;;52.87;33.80;;;;;;;22.12;95.74;102085.72;5087281;28;20280;-54
2022/05/07 03:41:20;;;;;;;49.80;31.43;;;;;;;22.18;93.58;102096.50;5076679;28;20269;-53
2022/05/07 03:43:46;;;;;;;47.38;29.48;;;;;;;22.02;93.13;102097.25;5088972;28;20277;-51
2022/05/07 03:46:11;;;;;;;44.17;28.60;;;;;;;22.29;86.90;102092.06;5082385;28;20100;-54
2022/05/07 03:48:46;;;;;;;38.43;26.40;;;;;;;22.13;87.41;102101.00;5080595;28;20037;-51
2022/05/07 03:51:12;;;;;;;38.03;23.52;;;;;;;21.56;87.15;102097.94;5089733;28;20282;-53
2022/05/07 03:53:37;;;;;;;31.85;21.33;;;;;;;21.40;85.82;102095.94;5060344;28;20047;-51
2022/05/07 03:56:08;;;;;;;38.57;23.63;;;;;;;21.83;85.09;102096.63;5085784;28;20032;-50
2022/05/07 03:58:36;;;;;;;39.87;24.00;;;;;;;21.90;83.97;102102.75;5084990;28;20296;-53
2022/05/07 04:01:05;;;;;;;36.33;23.37;;;;;;;22.03;81.69;102101.63;5077708;28;20298;-53
2022/05/07 04:03:31;;;;;;;34.27;23.13;;;;;;;22.22;80.14;102104.19;5089924;28;20273;-52
2022/05/07 04:05:59;;;;;;;34.33;21.23;;;;;;;21.69;82.67;102099.59;5080918;28;20269;-53
2022/05/07 04:08:26;;;;;;;38.03;23.23;;;;;;;21.95;81.94;102105.56;5087143;28;20266;-50
2022/05/07 04:10:53;;;;;;;30.13;20.80;;;;;;;21.96;81.72;102106.41;5076868;28;20337;-53
2022/05/07 04:13:22;;;;;;;39.73;22.87;;;;;;;22.07;80.91;102110.97;5093365;28;20269;-52
2022/05/07 04:15:53;;;;;;;37.30;21.07;;;;;;;22.17;80.18;102116.63;5082594;28;20284;-52
2022/05/07 04:18:21;;;;;;;35.60;20.33;;;;;;;22.16;77.54;102114.97;5087562;28;20277;-50
2022/05/07 04:20:51;;;;;;;38.33;20.87;;;;;;;22.15;77.08;102113.31;5090323;28;20281;-54
2022/05/07 04:23:19;;;;;;;42.47;22.10;;;;;;;22.03;76.82;102115.25;5079361;28;20292;-53
2022/05/07 04:25:46;;;;;;;34.97;20.40;;;;;;;22.10;77.58;102115.94;5081404;28;20273;-49
2022/05/07 04:28:16;;;;;;;40.67;20.77;;;;;;;22.15;75.78;102116.06;5088220;28;20262;-49
2022/05/07 04:30:45;;;;;;;46.27;21.47;;;;;;;22.23;73.86;102117.53;5076702;28;20292;-53
2022/05/07 04:33:15;;;;;;;40.40;19.83;;;;;;;22.17;74.00;102116.63;5093068;28;20313;-53
2022/05/07 04:35:41;;;;;;;32.17;19.37;;;;;;;22.13;73.76;102122.81;5065092;28;20269;-54
2022/05/07 04:38:07;;;;;;;30.75;18.17;;;;;;;22.19;72.35;102116.38;5089410;28;20300;-52
2022/05/07 04:40:34;;;;;;;31.37;18.73;;;;;;;22.13;73.36;102126.34;5087448;28;20108;-55
2022/05/07 04:43:00;;;;;;;;;;;;;;;22.15;72.97;102123.38;5062371;28;20265;-53
2022/05/07 04:45:29;;;;;;;31.67;19.37;;;;;;;21.91;73.98;102124.31;5061359;28;19912;-51
2022/05/07 04:48:01;;;;;;;32.67;19.30;;;;;;;22.01;74.24;102129.09;5090186;28;20262;-52
2022/05/07 04:50:31;;;;;;;28.57;18.23;;;;;;;22.09;73.98;102125.16;5086708;28;20304;-52
2022/05/07 04:53:24;;;;;;;32.57;19.63;;;;;;;21.92;75.94;102125.94;5079687;28;20274;-53
2022/05/07 04:55:51;;;;;;;31.90;19.53;;;;;;;22.09;74.05;102130.63;5091450;28;20335;-55
2022/05/07 04:58:18;;;;;;;31.13;18.60;;;;;;;21.76;75.43;102122.06;5085029;28;20266;-54
2022/05/07 05:00:45;;;;;;;29.53;18.73;;;;;;;22.07;74.01;102127.31;5083682;28;20288;-53
2022/05/07 05:03:19;;;;;;;30.70;17.33;;;;;;;22.08;72.23;102122.72;5092674;28;20261;-53
2022/05/07 05:06:00;;;;;;;28.07;16.50;;;;;;;22.00;72.52;102122.00;5082433;28;20287;-56
2022/05/07 05:08:41;;;;;;;29.30;15.63;;;;;;;22.10;71.31;102129.53;5084153;28;20288;-55
2022/05/07 05:11:06;;;;;;;27.20;16.23;;;;;;;22.08;71.35;102133.59;5076183;28;20317;-55
2022/05/07 05:13:33;;;;;;;26.07;15.40;;;;;;;21.86;72.31;102142.41;5092241;28;20575;-54
2022/05/07 05:15:59;;;;;;;26.08;15.85;;;;;;;22.03;72.62;102145.22;5081746;28;20305;-53
2022/05/07 05:18:43;;;;;;;29.30;16.37;;;;;;;21.65;75.34;102143.84;5082635;28;20051;-55
2022/05/07 05:21:11;;;;;;;27.20;16.80;;;;;;;21.62;76.52;102150.59;5091440;28;20281;-54
2022/05/07 05:23:48;;;;;;;30.47;17.00;;;;;;;21.80;75.97;102155.09;5060270;28;20258;-55
2022/05/07 05:26:15;;;;;;;29.77;16.37;;;;;;;21.80;75.95;102157.81;5083913;28;20265;-57
2022/05/07 05:28:47;;;;;;;24.20;15.23;;;;;;;21.80;75.97;102159.69;5083224;28;20312;-55
2022/05/07 05:31:14;;;;;;;29.10;16.17;;;;;;;21.64;75.87;102167.50;5091892;28;20292;-55
2022/05/07 05:33:44;;;;;;;34.87;17.53;;;;;;;21.49;77.69;102165.28;5063325;28;20300;-56
2022/05/07 05:36:20;;;;;;;30.20;16.27;;;;;;;21.63;76.76;102169.38;5087578;28;20270;-54
2022/05/07 05:38:48;;;;;;;33.37;16.80;;;;;;;21.49;78.26;102160.66;5088125;28;20265;-53
2022/05/07 05:41:17;;;;;;;27.23;16.73;;;;;;;21.71;77.32;102170.16;5078802;28;20341;-54
2022/05/07 05:43:46;;;;;;;31.23;16.93;;;;;;;21.54;78.40;102179.00;5092022;28;20287;-54
2022/05/07 05:46:14;;;;;;;36.53;18.55;;;;;;;21.60;77.80;102172.59;5082994;28;20269;-53
2022/05/07 05:48:41;;;;;;;31.50;16.13;;;;;;;21.66;77.36;102175.47;5083646;28;20032;-53
2022/05/07 05:51:07;;;;;;;28.83;16.75;;;;;;;22.02;74.91;102166.16;5075253;28;20302;-55
2022/05/07 05:53:37;;;;;;;34.53;16.33;;;;;;;21.97;75.19;102176.13;5091616;28;20025;-51
2022/05/07 05:56:05;;;;;;;30.83;15.13;;;;;;;22.19;73.89;102182.59;5081653;28;20277;-51
2022/05/07 05:58:39;;;;;;;33.93;16.67;;;;;;;21.47;80.51;102176.38;5083788;28;20278;-51
2022/05/07 06:01:08;;;;;;;34.55;16.90;;;;;;;21.75;78.99;102183.03;5090891;28;20288;-51
2022/05/07 06:03:41;;;;;;;27.83;14.18;;;;;;;21.32;82.87;102192.34;5066303;28;20048;-54
2022/05/07 06:06:08;;;;;;;27.57;15.53;;;;;;;21.25;83.99;102189.75;5074452;28;20037;-53
2022/05/07 06:08:33;;;;;;;28.00;16.30;;;;;;;20.99;88.33;102180.13;5062897;28;20271;-52
2022/05/07 06:11:00;;;;;;;30.97;15.30;;;;;;;21.47;83.09;102178.28;5066000;28;20032;-53
2022/05/07 06:13:26;;;;;;;37.05;18.23;;;;;;;21.74;83.15;102184.09;5072814;28;20282;-54
2022/05/07 06:15:52;;;;;;;39.43;16.83;;;;;;;21.87;81.47;102182.19;5060774;28;20033;-54
2022/05/07 06:18:22;;;;;;;33.03;15.97;;;;;;;22.02;81.03;102184.41;5063879;28;20259;-52
2022/05/07 06:20:54;;;;;;;31.67;16.80;;;;;;;22.03;81.01;102189.63;5081431;28;20265;-53
2022/05/07 06:23:23;;;;;;;30.23;15.70;;;;;;;22.01;80.74;102189.00;5077386;28;20266;-54
2022/05/07 06:28:33;;;;;;;31.30;15.20;;;;;;;21.89;84.05;102191.75;5083391;28;20137;-51
2022/05/07 06:30:59;;;;;;;32.95;16.65;;;;;;;22.10;82.19;102183.22;5079892;28;20270;-54
2022/05/07 06:33:28;;;;;;;37.87;16.03;;;;;;;22.23;80.18;102190.28;5089993;28;20048;-53
2022/05/07 06:35:57;;;;;;;34.30;14.47;;;;;;;21.91;83.25;102183.38;5077552;28;20284;-53
2022/05/07 06:38:30;;;;;;;32.93;14.90;;;;;;;22.58;77.54;102184.72;5083223;28;20264;-53
2022/05/07 06:41:01;;;;;;;30.40;15.73;;;;;;;22.12;80.94;102183.81;5086697;28;20269;-54
2022/05/07 06:43:28;;;;;;;39.87;15.27;;;;;;;22.43;78.97;102185.25;5074876;28;20037;-54
2022/05/07 06:46:03;;;;;;;35.37;15.60;;;;;;;22.91;74.83;102185.84;5079977;28;20337;-50
2022/05/07 06:48:30;;;;;;;34.90;15.30;;;;;;;22.77;75.73;102190.78;5083621;28;20277;-50
2022/05/07 06:51:02;;;;;;;36.50;16.73;;;;;;;22.67;75.51;102190.63;5087602;28;20399;-51
2022/05/07 06:53:28;;;;;;;33.38;16.15;;;;;;;22.46;77.41;102187.50;5076170;28;20310;-55
2022/05/07 06:56:00;;;;;;;35.50;15.80;;;;;;;22.68;75.87;102183.25;5089410;28;20089;-55
2022/05/07 06:58:28;;;;;;;39.30;17.60;;;;;;;22.94;74.86;102192.72;5082952;28;20040;-56
2022/05/07 07:00:53;;;;;;;38.70;18.57;;;;;;;23.23;71.81;102184.47;5081021;28;20273;-54
2022/05/07 07:03:19;;;;;;;57.40;28.20;;;;;;;23.60;69.74;102192.16;5090613;28;20332;-53
2022/05/07 07:05:45;;;;;;;47.85;22.77;;;;;;;23.74;68.96;102191.78;5077351;28;20032;-54
2022/05/07 07:08:13;;;;;;;40.00;17.83;;;;;;;23.20;71.67;102187.69;5086958;28;20048;-51
2022/05/07 07:10:40;;;;;;;66.30;30.40;;;;;;;23.88;67.80;102193.09;5074085;28;20319;-53
2022/05/07 07:13:05;;;;;;;82.70;41.87;;;;;;;23.99;67.14;102185.84;5088668;28;20281;-53
2022/05/07 07:15:31;;;;;;;39.85;17.75;;;;;;;24.12;65.40;102195.59;5077294;28;20292;-55
2022/05/07 07:17:57;;;;;;;39.90;17.05;;;;;;;23.48;70.43;102199.59;5088741;28;20037;-53
2022/05/07 07:20:23;;;;;;;40.95;16.73;;;;;;;22.72;73.45;102201.63;5082317;28;20032;-53
2022/05/07 07:22:48;;;;;;;36.78;17.52;;;;;;;23.59;70.11;102198.69;5081892;28;20065;-51
2022/05/07 07:25:14;;;;;;;32.20;17.10;;;;;;;23.74;69.19;102202.72;5089409;28;20041;-51
2022/05/07 07:27:39;;;;;;;34.07;16.60;;;;;;;23.42;70.94;102198.72;5076869;28;20048;-54
2022/05/07 07:30:05;;;;;;;30.98;14.05;;;;;;;23.63;69.60;102197.13;5087773;28;20021;-53
2022/05/07 07:32:31;;;;;;;34.53;16.25;;;;;;;23.88;67.76;102198.53;5083580;28;20103;-57
2022/05/07 07:34:57;;;;;;;41.88;17.50;;;;;;;24.18;66.03;102197.31;5080845;28;20067;-50
2022/05/07 07:37:23;;;;;;;43.20;16.80;;;;;;;24.27;64.55;102197.69;5090251;28;20032;-51
2022/05/07 07:39:48;;;;;;;39.83;16.40;;;;;;;24.22;64.38;102197.63;5089842;28;20048;-51
2022/05/07 07:42:13;;;;;;;35.63;15.40;;;;;;;24.33;63.99;102204.03;5084305;28;20028;-54
2022/05/07 07:44:39;;;;;;;46.58;17.70;;;;;;;24.28;64.40;102198.53;5087174;28;20305;-53
2022/05/07 07:49:50;;;;;;;48.13;21.27;;;;;;;24.90;62.79;102210.94;5065263;28;20278;-52
2022/05/07 07:52:16;;;;;;;38.20;17.75;;;;;;;24.74;62.86;102209.13;5059150;28;20041;-52
2022/05/07 07:54:42;;;;;;;35.50;16.67;;;;;;;24.79;63.56;102206.44;5059480;28;20063;-55
2022/05/07 07:57:08;;;;;;;38.33;17.85;;;;;;;25.07;62.59;102207.28;5063808;28;20033;-50
2022/05/07 07:59:33;;;;;;;38.88;18.45;;;;;;;25.12;61.56;102214.69;5064404;28;20129;-56
2022/05/07 08:01:59;;;;;;;36.90;16.85;;;;;;;25.49;59.48;102202.94;5066288;28;20013;-55
2022/05/07 08:04:25;;;;;;;33.13;16.25;;;;;;;25.79;57.78;102209.69;5065438;28;20045;-56
2022/05/07 08:11:40;;;;;;;30.35;15.15;;;;;;;25.81;55.76;102210.25;5061295;28;20085;-51
2022/05/07 08:12:20;;;;;;;27.63;13.17;;;;;;;26.28;52.95;102204.97;5065176;28;20396;-53
2022/05/07 08:14:46;;;;;;;32.72;16.73;;;;;;;26.32;54.75;102208.84;5067038;28;20037;-49
2022/05/07 08:17:11;;;;;;;30.42;14.18;;;;;;;26.50;52.51;102202.03;5063507;28;20059;-56
2022/05/07 08:19:36;;;;;;;30.25;16.17;;;;;;;26.22;54.55;102208.81;5069984;28;20068;-51
2022/05/07 08:22:02;;;;;;;36.60;14.88;;;;;;;26.55;52.21;102213.03;5069509;28;20043;-54
2022/05/07 08:24:28;;;;;;;50.55;21.58;;;;;;;26.91;52.04;102212.28;5066043;28;20029;-53
2022/05/07 08:26:54;;;;;;;24.42;11.98;;;;;;;26.88;48.79;102215.56;5068383;28;20044;-55
2022/05/07 08:29:21;;;;;;;26.77;13.73;;;;;;;26.54;50.91;102213.31;5089149;28;20032;-56
2022/05/07 08:31:48;;;;;;;27.20;13.97;;;;;;;26.58;51.63;102222.63;5078080;28;20052;-52
2022/05/07 08:34:13;;;;;;;35.47;17.43;;;;;;;26.74;52.25;102221.53;5090316;28;20029;-52
2022/05/07 08:36:38;;;;;;;34.15;15.38;;;;;;;26.77;51.62;102212.78;5086737;28;20048;-53
2022/05/07 08:39:04;;;;;;;41.72;20.35;;;;;;;26.92;52.15;102213.91;5080942;28;20041;-55
2022/05/07 08:41:30;;;;;;;43.90;22.40;;;;;;;27.12;50.30;102221.34;5093728;28;20044;-55
2022/05/07 08:43:56;;;;;;;28.30;14.80;;;;;;;27.23;48.28;102221.34;5070250;28;20041;-55
2022/05/07 08:46:22;;;;;;;32.08;14.43;;;;;;;27.01;48.32;102226.03;5062932;28;20033;-55
2022/05/07 08:48:49;;;;;;;22.98;12.00;;;;;;;27.04;47.04;102219.97;5070869;28;20051;-55
2022/05/07 08:51:16;;;;;;;32.33;17.70;;;;;;;26.85;48.69;102222.41;5065433;28;20048;-53
2022/05/07 08:53:43;;;;;;;26.83;13.87;;;;;;;27.18;48.41;102227.66;5074626;28;20048;-55
2022/05/07 08:56:09;;;;;;;34.13;14.83;;;;;;;27.48;48.43;102226.78;5070335;28;20055;-57
2022/05/07 08:58:34;;;;;;;34.55;17.42;;;;;;;26.99;49.79;102221.88;5086751;28;20029;-57
2022/05/07 09:01:00;;;;;;;25.02;14.63;;;;;;;27.28;47.26;102227.66;5083289;28;20037;-56
2022/05/07 09:03:38;;;;;;;30.90;14.65;;;;;;;27.17;49.05;102223.25;5087795;28;20028;-55
2022/05/07 09:06:24;;;;;;;30.37;14.03;;;;;;;27.80;47.80;102224.03;5091080;28;20033;-55
2022/05/07 09:08:51;;;;;;;26.83;13.70;;;;;;;27.98;46.17;102228.06;5088394;28;20037;-54
2022/05/07 09:11:18;;;;;;;87.57;43.87;;;;;;;27.99;45.90;102226.97;5080772;28;20087;-57
2022/05/07 09:13:45;;;;;;;26.57;15.40;;;;;;;28.14;45.24;102229.66;5093181;28;20100;-53
2022/05/07 09:16:11;;;;;;;39.83;16.07;;;;;;;28.02;46.26;102223.66;5076145;28;20120;-55
2022/05/07 09:18:36;;;;;;;41.78;20.80;;;;;;;28.27;46.62;102233.75;5086729;28;20107;-57
2022/05/07 09:21:16;;;;;;;;;;;;;;;28.60;44.72;102236.88;5083240;28;20100;-59
2022/05/07 09:23:46;;;;;;;39.83;21.77;;;;;;;28.84;45.40;102235.38;5092751;28;19912;-57
2022/05/07 09:26:37;;;;;;;33.43;16.57;;;;;;;28.91;45.02;102231.16;5082992;28;20063;-51
2022/05/07 09:29:07;;;;;;;42.67;21.07;;;;;;;29.93;42.66;102228.81;5082668;28;20116;-55
2022/05/07 09:31:35;;;;;;;31.03;15.27;;;;;;;30.60;42.10;102223.25;5076777;28;20063;-57
2022/05/07 09:36:55;;;;;;;32.77;16.50;;;;;;;31.80;39.41;102229.53;5088484;28;20040;-55
2022/05/07 09:39:21;;;;;;;23.08;13.82;;;;;;;31.75;39.60;102239.56;5079895;28;20037;-52
2022/05/07 09:41:53;;;;;;;29.85;14.55;;;;;;;32.54;37.86;102230.47;5092502;28;20033;-56
2022/05/07 09:44:20;;;;;;;28.98;16.42;;;;;;;32.76;36.36;102229.66;5083134;28;20052;-54
2022/05/07 09:46:45;;;;;;;19.10;12.15;;;;;;;33.60;34.71;102237.50;5071009;28;20040;-56
2022/05/07 09:49:12;;;;;;;22.88;14.18;;;;;;;33.98;34.72;102236.19;5075113;28;20104;-53
2022/05/07 09:51:40;;;;;;;38.08;20.20;;;;;;;34.08;33.50;102243.38;5063823;28;20045;-57
2022/05/07 09:59:37;;;;;;;22.38;13.50;;;;;;;31.13;37.36;102248.94;5063176;28;20056;-55
2022/05/07 10:02:42;;;;;;;21.27;12.15;;;;;;;33.21;34.95;102248.19;5063389;28;20113;-55
2022/05/07 10:05:26;;;;;;;19.05;10.70;;;;;;;33.81;33.49;102250.81;5062327;28;20044;-56
2022/05/07 10:08:02;;;;;;;90.15;52.80;;;;;;;34.50;32.63;102242.94;5057134;28;20101;-58
2022/05/07 10:10:30;;;;;;;51.85;29.60;;;;;;;33.35;33.45;102239.00;5062636;28;20022;-57
2022/05/07 10:12:59;;;;;;;51.83;29.10;;;;;;;32.85;34.18;102238.81;5062345;28;20056;-56
2022/05/07 10:15:25;;;;;;;27.60;14.98;;;;;;;32.06;36.13;102237.31;5069828;28;20073;-54
2022/05/07 10:18:07;;;;;;;47.25;28.23;;;;;;;31.62;36.87;102229.31;5067430;28;20028;-54
2022/05/07 10:20:44;;;;;;;31.02;17.38;;;;;;;32.98;35.20;102225.25;5065992;28;20056;-52
2022/05/07 10:23:14;;;;;;;33.25;19.00;;;;;;;34.00;32.61;102240.25;5067269;28;20025;-56
2022/05/07 10:25:43;;;;;;;27.05;14.68;;;;;;;33.20;33.50;102238.25;5075201;28;20048;-55
2022/05/07 10:28:12;;;;;;;28.10;16.30;;;;;;;32.89;33.56;102239.06;5089222;28;20025;-51
2022/05/07 10:30:49;;;;;;;37.90;19.92;;;;;;;33.65;33.47;102250.41;5084332;28;20063;-52
2022/05/07 10:33:18;;;;;;;28.30;14.82;;;;;;;33.60;32.76;102237.50;5079673;28;20037;-51
2022/05/07 10:35:53;;;;;;;47.55;29.35;;;;;;;34.96;30.60;102232.28;5091535;28;20048;-56
2022/05/07 10:38:22;;;;;;;;;;;;;;;34.84;30.90;102238.53;5078209;28;20074;-51
2022/05/07 10:40:59;;;;;;;40.65;23.40;;;;;;;35.95;29.72;102240.75;5083297;28;19919;-57
2022/05/07 10:43:36;;;;;;;73.97;43.22;;;;;;;35.53;29.74;102235.91;5062780;28;20066;-56
2022/05/07 10:46:16;;;;;;;102.07;62.60;;;;;;;34.68;30.55;102232.63;5063134;28;20038;-51
2022/05/07 10:48:57;;;;;;;22.67;12.98;;;;;;;33.75;31.88;102239.03;5084553;28;20028;-54
2022/05/07 10:51:28;;;;;;;57.58;32.33;;;;;;;33.74;32.23;102235.41;5074243;28;20115;-53
2022/05/07 10:54:00;;;;;;;31.25;16.98;;;;;;;32.98;32.56;102223.28;5062247;28;20038;-55
2022/05/07 10:56:30;;;;;;;45.50;22.08;;;;;;;34.47;31.50;102227.72;5086084;28;20048;-55
2022/05/07 10:58:59;;;;;;;46.53;23.83;;;;;;;35.52;29.68;102235.09;5085873;28;20119;-55
2022/05/07 11:01:27;;;;;;;31.55;16.10;;;;;;;36.76;28.43;102235.06;5077636;28;20083;-56
2022/05/07 11:04:06;;;;;;;34.40;17.38;;;;;;;37.31;27.01;102229.41;5058060;28;20035;-55
2022/05/07 11:06:52;;;;;;;25.15;12.82;;;;;;;36.62;27.69;102224.22;5083564;28;20043;-55
2022/05/07 11:09:19;;;;;;;;;;;;;;;37.47;26.64;102226.75;5079576;28;20045;-57
2022/05/07 11:11:47;;;;;;;31.08;18.35;;;;;;;38.81;25.73;102235.56;5076590;28;19944;-52
2022/05/07 11:14:32;;;;;;;25.00;13.60;;;;;;;38.98;24.82;102237.22;5088065;28;20033;-54
2022/05/07 11:17:00;;;;;;;32.65;19.02;;;;;;;39.62;24.04;102230.81;5086953;28;20100;-53
2022/05/07 11:19:27;;;;;;;65.57;38.33;;;;;;;38.27;25.73;102232.00;5077616;28;20071;-52
2022/05/07 11:21:53;;;;;;;35.45;23.92;;;;;;;37.45;26.73;102227.09;5076659;28;20051;-56
2022/05/07 11:24:22;;;;;;;42.10;23.83;;;;;;;36.15;27.78;102219.69;5087463;28;20060;-55
2022/05/07 11:26:50;;;;;;;85.28;32.83;;;;;;;35.54;28.42;102224.47;5085004;28;20032;-50
2022/05/07 11:29:16;;;;;;;22.67;10.57;;;;;;;34.97;28.45;102220.84;5078690;28;20033;-55
2022/05/07 11:31:41;;;;;;;56.10;26.10;;;;;;;33.79;30.59;102226.16;5074541;28;20041;-54
2022/05/07 11:34:12;;;;;;;66.03;27.20;;;;;;;34.37;30.41;102220.56;5088107;28;20096;-54
2022/05/07 11:36:38;;;;;;;39.97;19.48;;;;;;;35.96;28.11;102228.47;5083641;28;20036;-55
2022/05/07 11:39:05;;;;;;;133.43;59.10;;;;;;;38.06;26.56;102230.22;5072134;28;20052;-56
2022/05/07 11:41:32;;;;;;;157.45;81.95;;;;;;;38.42;25.93;102230.47;5057513;28;20052;-55
2022/05/07 11:47:01;;;;;;;131.18;69.55;;;;;;;37.12;25.49;102224.38;5084257;28;20054;-54